createdAt,value
2023-03-16T00:00:27.749Z,1.14
2023-03-16T00:02:56.028Z,1.08
2023-03-16T00:05:26.140Z,1.12
2023-03-16T00:07:54.192Z,1.09
2023-03-16T00:10:34.751Z,1.07
2023-03-16T00:13:07.267Z,1.17
2023-03-16T00:15:50.351Z,1.23
2023-03-16T00:18:18.282Z,1.16
2023-03-16T00:20:51.707Z,1.17
2023-03-16T00:23:19.674Z,1.21
2023-03-16T00:25:47.734Z,1.10
2023-03-16T00:28:15.769Z,1.16
2023-03-16T00:30:47.520Z,1.18
2023-03-16T00:33:15.749Z,1.16
2023-03-16T00:35:49.961Z,1.20
2023-03-16T00:38:18.763Z,1.11
2023-03-16T00:40:47.139Z,1.18
2023-03-16T00:43:18.695Z,1.07
2023-03-16T00:45:46.740Z,1.05
2023-03-16T00:48:14.818Z,1.11
2023-03-16T00:50:43.759Z,1.07
2023-03-16T00:53:12.993Z,1.03
2023-03-16T00:55:41.574Z,0.97
2023-03-16T00:58:09.657Z,0.93
2023-03-16T01:00:37.753Z,0.93
2023-03-16T01:03:05.683Z,0.94
2023-03-16T01:05:34.003Z,0.81
2023-03-16T01:08:02.864Z,0.88
2023-03-16T01:10:32.123Z,0.87
2023-03-16T01:13:00.143Z,0.93
2023-03-16T01:15:28.131Z,0.80
2023-03-16T01:17:56.218Z,0.61
2023-03-16T01:20:24.562Z,0.67
2023-03-16T01:22:52.350Z,0.65
2023-03-16T01:25:21.270Z,0.56
2023-03-16T01:27:50.692Z,0.65
2023-03-16T01:30:18.702Z,0.71
2023-03-16T01:32:46.757Z,0.65
2023-03-16T01:35:14.790Z,0.62
2023-03-16T01:37:42.768Z,0.77
2023-03-16T01:40:12.548Z,0.63
2023-03-16T01:42:47.438Z,0.61
2023-03-16T01:45:53.727Z,0.58
2023-03-16T01:48:25.616Z,0.59
2023-03-16T01:50:54.624Z,0.49
2023-03-16T01:53:24.375Z,0.58
2023-03-16T01:55:55.357Z,0.53
2023-03-16T01:58:23.805Z,0.57
2023-03-16T02:00:51.615Z,0.45
2023-03-16T02:03:22.602Z,0.51
2023-03-16T02:05:55.465Z,0.48
2023-03-16T02:08:24.020Z,0.49
2023-03-16T02:10:54.565Z,0.52
2023-03-16T02:13:23.084Z,0.53
2023-03-16T02:15:52.653Z,0.57
2023-03-16T02:18:23.262Z,0.50
2023-03-16T02:20:57.978Z,0.45
2023-03-16T02:23:26.936Z,0.44
2023-03-16T02:26:02.950Z,0.39
2023-03-16T02:28:39.079Z,0.38
2023-03-16T02:31:09.378Z,0.30
2023-03-16T02:33:37.598Z,0.32
2023-03-16T02:36:05.987Z,0.41
2023-03-16T02:38:34.091Z,0.43
2023-03-16T02:41:12.937Z,0.40
2023-03-16T02:43:44.989Z,0.34
2023-03-16T02:46:16.152Z,0.32
2023-03-16T02:48:48.860Z,0.26
2023-03-16T02:51:16.778Z,0.25
2023-03-16T02:53:44.594Z,0.25
2023-03-16T02:56:12.379Z,0.12
2023-03-16T02:58:40.156Z,0.13
2023-03-16T03:01:08.150Z,0.07
2023-03-16T03:03:37.458Z,-0.03
2023-03-16T03:06:05.817Z,-0.01
2023-03-16T03:08:33.844Z,0.02
2023-03-16T03:11:02.144Z,0.09
2023-03-16T03:13:30.204Z,0.01
2023-03-16T03:15:57.983Z,0.02
2023-03-16T03:18:26.317Z,0.03
2023-03-16T03:20:55.737Z,0.10
2023-03-16T03:23:23.657Z,0.14
2023-03-16T03:25:51.504Z,0.14
2023-03-16T03:28:19.465Z,0.15
2023-03-16T03:30:47.453Z,0.06
2023-03-16T03:33:15.501Z,0.06
2023-03-16T03:35:43.517Z,0.04
2023-03-16T03:38:12.861Z,0.03
2023-03-16T03:40:40.876Z,0.01
2023-03-16T03:43:08.707Z,0.09
2023-03-16T03:45:37.818Z,0.10
2023-03-16T03:48:06.723Z,0.11
2023-03-16T03:50:34.665Z,0.06
2023-03-16T03:53:02.739Z,0.01
2023-03-16T03:55:32.023Z,-0.01
2023-03-16T03:58:00.081Z,0.01
2023-03-16T04:00:28.183Z,-0.03
2023-03-16T04:02:56.211Z,-0.13
2023-03-16T04:05:27.366Z,-0.05
2023-03-16T04:07:57.396Z,-0.02
2023-03-16T04:10:25.320Z,0.00
2023-03-16T04:12:54.941Z,0.04
2023-03-16T04:15:22.708Z,0.03
2023-03-16T04:17:50.619Z,-0.26
2023-03-16T04:20:19.916Z,-0.24
2023-03-16T04:22:48.337Z,-0.44
2023-03-16T04:25:18.409Z,-0.29
2023-03-16T04:27:46.791Z,-0.40
2023-03-16T04:30:17.080Z,-0.28
2023-03-16T04:32:45.236Z,-0.22
2023-03-16T04:35:13.076Z,-0.16
2023-03-16T04:37:41.295Z,-0.21
2023-03-16T04:40:16.646Z,-0.17
2023-03-16T04:42:45.476Z,-0.17
2023-03-16T04:45:14.201Z,-0.25
2023-03-16T04:47:43.442Z,-0.19
2023-03-16T04:50:13.945Z,-0.25
2023-03-16T04:52:41.777Z,-0.31
2023-03-16T04:55:10.531Z,-0.28
2023-03-16T04:57:38.682Z,-0.29
2023-03-16T05:00:11.950Z,-0.34
2023-03-16T05:02:40.072Z,-0.34
2023-03-16T05:05:10.555Z,-0.30
2023-03-16T05:07:40.367Z,-0.17
2023-03-16T05:10:09.949Z,-0.29
2023-03-16T05:12:37.985Z,-0.28
2023-03-16T05:15:06.677Z,-0.25
2023-03-16T05:17:35.149Z,-0.23
2023-03-16T05:20:08.438Z,-0.14
2023-03-16T05:22:38.024Z,-0.28
2023-03-16T05:25:06.884Z,-0.17
2023-03-16T05:27:35.430Z,-0.18
2023-03-16T05:30:03.354Z,-0.16
2023-03-16T05:32:31.664Z,-0.02
2023-03-16T05:34:59.614Z,0.02
2023-03-16T05:37:27.882Z,-0.06
2023-03-16T05:39:57.968Z,-0.10
2023-03-16T05:42:29.190Z,-0.09
2023-03-16T05:44:57.392Z,-0.13
2023-03-16T05:47:25.270Z,-0.07
2023-03-16T05:49:53.170Z,-0.02
2023-03-16T05:52:21.610Z,0.00
2023-03-16T05:54:49.443Z,-0.01
2023-03-16T05:57:18.636Z,0.04
2023-03-16T05:59:46.688Z,0.10
2023-03-16T06:02:14.829Z,0.16
2023-03-16T06:04:43.024Z,0.11
2023-03-16T06:07:11.639Z,0.25
2023-03-16T06:09:39.509Z,0.26
2023-03-16T06:12:07.828Z,0.36
2023-03-16T06:14:37.549Z,0.36
2023-03-16T06:17:05.369Z,0.46
2023-03-16T06:19:33.259Z,0.50
2023-03-16T06:22:01.111Z,0.75
2023-03-16T06:24:29.029Z,0.81
2023-03-16T06:26:57.044Z,0.92
2023-03-16T06:29:25.616Z,1.04
2023-03-16T06:31:54.956Z,1.17
2023-03-16T06:34:22.983Z,1.29
2023-03-16T06:36:51.521Z,1.31
2023-03-16T06:39:19.646Z,1.49
2023-03-16T06:41:47.527Z,1.48
2023-03-16T06:44:15.705Z,1.51
2023-03-16T06:46:43.684Z,1.61
2023-03-16T06:49:13.220Z,1.69
2023-03-16T06:51:41.814Z,1.80
2023-03-16T06:54:09.929Z,1.81
2023-03-16T06:56:38.007Z,1.93
2023-03-16T06:59:05.886Z,1.93
2023-03-16T07:01:34.162Z,2.10
2023-03-16T07:04:02.164Z,2.07
2023-03-16T07:06:31.574Z,2.23
2023-03-16T07:09:01.390Z,2.36
2023-03-16T07:11:29.237Z,2.35
2023-03-16T07:14:00.038Z,2.43
2023-03-16T07:16:28.279Z,2.48
2023-03-16T07:18:56.094Z,2.53
2023-03-16T07:21:24.270Z,2.62
2023-03-16T07:23:53.973Z,2.64
2023-03-16T07:26:21.735Z,2.74
2023-03-16T07:28:50.016Z,2.73
2023-03-16T07:31:17.859Z,2.85
2023-03-16T07:33:46.051Z,2.94
2023-03-16T07:36:13.823Z,2.98
2023-03-16T07:38:42.499Z,3.05
2023-03-16T07:41:12.358Z,3.08
2023-03-16T07:43:40.386Z,3.19
2023-03-16T07:46:13.757Z,3.21
2023-03-16T07:48:42.589Z,3.26
2023-03-16T07:51:11.656Z,3.33
2023-03-16T07:53:40.092Z,3.35
2023-03-16T07:56:11.466Z,-145.20
2023-03-16T07:58:41.760Z,-145.20
2023-03-16T08:01:10.941Z,-145.20
2023-03-16T08:03:39.132Z,3.57
2023-03-16T08:06:07.627Z,3.73
2023-03-16T08:08:35.592Z,3.77
2023-03-16T08:11:03.606Z,3.79
2023-03-16T08:13:31.999Z,3.82
2023-03-16T08:16:02.015Z,3.83
2023-03-16T08:18:30.965Z,3.84
2023-03-16T08:20:59.211Z,3.96
2023-03-16T08:23:28.017Z,4.04
2023-03-16T08:25:57.185Z,4.08
2023-03-16T08:28:26.062Z,4.04
2023-03-16T08:30:55.565Z,4.09
2023-03-16T08:33:25.972Z,4.20
2023-03-16T08:35:54.040Z,4.23
2023-03-16T08:38:22.006Z,4.37
2023-03-16T08:40:52.189Z,4.41
2023-03-16T08:43:20.557Z,4.44
2023-03-16T08:45:49.289Z,4.47
2023-03-16T08:48:18.285Z,4.63
2023-03-16T08:50:49.943Z,4.67
2023-03-16T08:53:18.942Z,4.72
2023-03-16T08:55:46.731Z,4.71
2023-03-16T08:58:17.629Z,4.78
2023-03-16T09:00:50.258Z,4.83
2023-03-16T09:03:18.730Z,4.89
2023-03-16T09:05:50.116Z,4.94
2023-03-16T09:08:18.427Z,5.01
2023-03-16T09:10:49.185Z,5.02
2023-03-16T09:13:17.030Z,5.02
2023-03-16T09:15:45.292Z,5.07
2023-03-16T09:18:13.799Z,5.18
2023-03-16T09:20:41.696Z,5.25
2023-03-16T09:23:11.715Z,5.32
2023-03-16T09:25:39.771Z,5.37
2023-03-16T09:28:08.781Z,5.42
2023-03-16T09:30:37.944Z,5.48
2023-03-16T09:33:06.246Z,5.60
2023-03-16T09:35:35.102Z,5.69
2023-03-16T09:38:06.720Z,5.77
2023-03-16T09:40:38.487Z,5.84
2023-03-16T09:43:33.794Z,5.90
2023-03-16T09:46:11.156Z,5.99
2023-03-16T09:48:41.283Z,6.05
2023-03-16T09:51:24.535Z,6.11
2023-03-16T09:54:00.153Z,6.19
2023-03-16T09:56:50.268Z,6.28
2023-03-16T09:59:19.126Z,6.40
2023-03-16T10:02:42.338Z,6.45
2023-03-16T10:08:24.260Z,6.39
2023-03-16T10:11:22.239Z,6.33
2023-03-16T10:13:55.140Z,6.40
2023-03-16T10:16:28.960Z,6.40
2023-03-16T10:19:02.396Z,6.46
2023-03-16T10:21:35.381Z,6.55
2023-03-16T10:24:07.686Z,6.61
2023-03-16T10:26:44.265Z,6.65
2023-03-16T10:29:14.618Z,6.72
2023-03-16T10:31:43.406Z,6.79
2023-03-16T10:34:13.189Z,6.84
2023-03-16T10:36:43.419Z,6.94
2023-03-16T10:39:13.322Z,7.06
2023-03-16T10:41:43.879Z,7.19
2023-03-16T10:44:15.419Z,7.29
2023-03-16T10:46:48.666Z,7.19
2023-03-16T10:49:25.770Z,7.17
2023-03-16T10:51:55.366Z,7.27
2023-03-16T10:54:30.758Z,7.38
2023-03-16T10:56:59.383Z,7.48
2023-03-16T10:59:34.467Z,7.38
2023-03-16T11:02:03.795Z,7.42
2023-03-16T11:04:35.880Z,7.45
2023-03-16T11:07:03.957Z,7.49
2023-03-16T11:09:35.027Z,7.59
2023-03-16T11:12:15.629Z,7.63
2023-03-16T11:14:46.725Z,7.77
2023-03-16T11:17:18.069Z,7.87
2023-03-16T11:19:53.117Z,7.93
2023-03-16T11:22:23.659Z,7.99
2023-03-16T11:24:55.470Z,7.88
2023-03-16T11:27:26.208Z,7.94
2023-03-16T11:30:05.410Z,7.99
2023-03-16T11:32:37.254Z,8.06
2023-03-16T11:35:14.286Z,8.09
2023-03-16T11:37:53.003Z,8.21
2023-03-16T11:40:38.453Z,8.34
2023-03-16T11:43:18.309Z,8.37
2023-03-16T11:45:59.907Z,8.29
2023-03-16T11:48:38.199Z,8.30
2023-03-16T11:51:10.348Z,8.30
2023-03-16T11:53:54.592Z,8.08
2023-03-16T11:56:31.172Z,8.31
2023-03-16T11:59:19.526Z,8.35
2023-03-16T12:02:07.293Z,8.18
2023-03-16T12:05:17.975Z,8.29
2023-03-16T12:07:57.609Z,8.43
2023-03-16T12:10:29.902Z,8.43
2023-03-16T12:13:13.142Z,8.49
2023-03-16T12:15:47.771Z,8.39
2023-03-16T12:18:21.777Z,8.42
2023-03-16T12:20:55.238Z,8.44
2023-03-16T12:23:30.867Z,8.55
2023-03-16T12:26:00.792Z,8.57
2023-03-16T12:28:32.191Z,8.58
2023-03-16T12:31:10.061Z,8.68
2023-03-16T12:33:55.145Z,8.63
2023-03-16T12:36:46.971Z,8.69
2023-03-16T12:39:22.111Z,8.65
2023-03-16T12:42:04.650Z,8.64
2023-03-16T12:44:38.423Z,8.69
2023-03-16T12:47:17.170Z,8.63
2023-03-16T12:49:47.831Z,8.71
2023-03-16T12:52:15.879Z,8.62
2023-03-16T12:55:00.946Z,8.58
2023-03-16T12:57:28.891Z,8.70
2023-03-16T13:00:01.924Z,8.75
2023-03-16T13:02:33.623Z,8.80
2023-03-16T13:05:09.504Z,8.83
2023-03-16T13:07:49.087Z,8.90
2023-03-16T13:10:18.091Z,8.88
2023-03-16T13:12:48.681Z,8.88
2023-03-16T13:15:28.308Z,8.94
2023-03-16T13:18:07.945Z,9.03
2023-03-16T13:20:52.297Z,9.11
2023-03-16T13:23:24.128Z,9.11
2023-03-16T13:26:11.699Z,9.11
2023-03-16T13:28:43.178Z,9.19
2023-03-16T13:31:23.031Z,9.22
2023-03-16T13:33:55.805Z,9.29
2023-03-16T13:36:28.038Z,9.25
2023-03-16T13:39:06.745Z,9.28
2023-03-16T13:41:34.837Z,9.34
2023-03-16T13:44:08.919Z,9.41
2023-03-16T13:46:46.327Z,9.42
2023-03-16T13:49:27.959Z,9.40
2023-03-16T13:51:57.729Z,9.43
2023-03-16T13:54:30.872Z,9.45
2023-03-16T13:57:00.786Z,9.36
2023-03-16T13:59:28.985Z,9.35
2023-03-16T14:02:12.454Z,9.24
2023-03-16T14:04:51.273Z,9.34
2023-03-16T14:07:28.256Z,9.38
2023-03-16T14:10:00.513Z,9.21
2023-03-16T14:12:30.226Z,9.33
2023-03-16T14:14:58.404Z,9.45
2023-03-16T14:17:32.059Z,9.52
2023-03-16T14:20:02.100Z,9.52
2023-03-16T14:22:37.811Z,9.51
2023-03-16T14:25:07.772Z,9.47
2023-03-16T14:27:45.239Z,9.52
2023-03-16T14:30:19.433Z,9.48
2023-03-16T14:32:58.597Z,9.53
2023-03-16T14:35:29.473Z,9.43
2023-03-16T14:37:59.248Z,9.43
2023-03-16T14:40:43.025Z,9.46
2023-03-16T14:43:12.076Z,9.38
2023-03-16T14:45:41.592Z,9.32
2023-03-16T14:48:17.153Z,9.26
2023-03-16T14:50:45.847Z,9.27
2023-03-16T14:53:15.607Z,9.26
2023-03-16T14:55:44.077Z,9.22
2023-03-16T14:58:12.540Z,9.08
2023-03-16T15:00:52.239Z,9.03
2023-03-16T15:03:26.447Z,9.04
2023-03-16T15:05:54.695Z,9.04
2023-03-16T15:08:27.465Z,8.95
2023-03-16T15:10:58.987Z,9.02
2023-03-16T15:13:52.663Z,8.93
2023-03-16T15:16:23.064Z,8.88
2023-03-16T15:18:51.958Z,8.90
2023-03-16T15:21:26.649Z,8.90
2023-03-16T15:23:58.616Z,8.78
2023-03-16T15:26:29.268Z,8.79
2023-03-16T15:28:58.803Z,8.73
2023-03-16T15:31:27.258Z,8.69
2023-03-16T15:33:55.323Z,8.62
2023-03-16T15:36:25.101Z,8.64
2023-03-16T15:38:56.912Z,8.57
2023-03-16T15:41:30.123Z,8.57
2023-03-16T15:44:00.986Z,8.50
2023-03-16T15:46:29.264Z,8.36
2023-03-16T15:48:57.272Z,8.48
2023-03-16T15:51:28.985Z,8.37
2023-03-16T15:54:00.864Z,8.33
2023-03-16T15:56:47.200Z,8.33
2023-03-16T15:59:22.184Z,8.20
2023-03-16T16:01:52.693Z,8.28
2023-03-16T16:04:25.088Z,8.17
2023-03-16T16:06:55.466Z,8.04
2023-03-16T16:09:25.540Z,8.28
2023-03-16T16:11:53.705Z,8.37
2023-03-16T16:14:25.192Z,8.21
2023-03-16T16:16:54.340Z,8.11
2023-03-16T16:19:22.818Z,7.95
2023-03-16T16:21:50.690Z,8.19
2023-03-16T16:24:19.286Z,8.01
2023-03-16T16:26:54.371Z,7.93
2023-03-16T16:29:24.727Z,7.90
2023-03-16T16:31:53.222Z,7.86
2023-03-16T16:34:24.987Z,7.80
2023-03-16T16:36:53.836Z,7.64
2023-03-16T16:39:22.119Z,7.50
2023-03-16T16:41:54.979Z,7.47
2023-03-16T16:44:27.201Z,7.45
2023-03-16T16:46:56.205Z,7.55
2023-03-16T16:49:25.856Z,7.50
2023-03-16T16:51:54.099Z,7.45
2023-03-16T16:54:23.950Z,7.38
2023-03-16T16:56:58.198Z,7.41
2023-03-16T16:59:30.193Z,7.31
2023-03-16T17:02:01.348Z,7.46
2023-03-16T17:04:31.234Z,7.42
2023-03-16T17:07:02.972Z,7.28
2023-03-16T17:09:32.213Z,7.29
2023-03-16T17:12:02.932Z,7.21
2023-03-16T17:14:32.244Z,7.14
2023-03-16T17:17:03.149Z,7.24
2023-03-16T17:19:31.579Z,7.25
2023-03-16T17:21:59.986Z,7.22
2023-03-16T17:24:37.412Z,7.13
2023-03-16T17:27:10.261Z,6.91
2023-03-16T17:29:38.397Z,7.03
2023-03-16T17:32:18.740Z,7.06
2023-03-16T17:34:47.187Z,7.13
2023-03-16T17:37:19.688Z,7.07
2023-03-16T17:39:48.802Z,7.13
2023-03-16T17:42:23.286Z,7.01
2023-03-16T17:44:53.477Z,7.07
2023-03-16T17:47:24.089Z,6.91
2023-03-16T17:49:55.333Z,6.83
2023-03-16T17:52:25.922Z,6.87
2023-03-16T17:54:55.400Z,6.82
2023-03-16T17:57:30.647Z,6.76
2023-03-16T17:59:59.563Z,6.84
2023-03-16T18:02:46.863Z,6.79
2023-03-16T18:05:21.454Z,6.76
2023-03-16T18:07:51.816Z,6.70
2023-03-16T18:10:22.749Z,6.78
2023-03-16T18:12:57.628Z,6.72
2023-03-16T18:15:34.087Z,6.69
2023-03-16T18:18:05.949Z,6.61
2023-03-16T18:20:36.758Z,6.61
2023-03-16T18:23:16.694Z,6.64
2023-03-16T18:25:45.997Z,6.66
2023-03-16T18:28:16.714Z,6.70
2023-03-16T18:30:47.453Z,6.74
2023-03-16T18:33:27.736Z,6.66
2023-03-16T18:35:58.826Z,6.68
2023-03-16T18:38:36.465Z,6.69
2023-03-16T18:41:30.807Z,6.71
2023-03-16T18:44:02.200Z,6.72
2023-03-16T18:46:32.104Z,6.73
2023-03-16T18:49:03.388Z,6.75
2023-03-16T18:51:32.301Z,6.73
2023-03-16T18:54:00.501Z,6.76
2023-03-16T18:56:30.184Z,6.76
2023-03-16T18:58:58.453Z,6.63
2023-03-16T19:01:33.165Z,6.66
2023-03-16T19:04:03.197Z,6.68
2023-03-16T19:06:33.375Z,6.61
2023-03-16T19:09:06.258Z,6.72
2023-03-16T19:11:36.452Z,6.67
2023-03-16T19:14:04.772Z,6.63
2023-03-16T19:16:34.494Z,6.65
2023-03-16T19:19:02.626Z,6.60
2023-03-16T19:21:32.759Z,6.56
2023-03-16T19:24:04.277Z,6.43
2023-03-16T19:26:34.797Z,6.37
2023-03-16T19:29:03.634Z,6.34
2023-03-16T19:31:33.589Z,6.26
2023-03-16T19:34:03.138Z,6.28
2023-03-16T19:36:33.914Z,6.10
2023-03-16T19:39:03.063Z,6.10
2023-03-16T19:41:33.032Z,6.20
2023-03-16T19:44:08.531Z,6.22
2023-03-16T19:46:36.774Z,6.16
2023-03-16T19:49:09.968Z,6.12
2023-03-16T19:51:38.011Z,6.11
2023-03-16T19:54:06.196Z,6.11
2023-03-16T19:56:34.320Z,6.16
2023-03-16T19:59:02.347Z,6.15
2023-03-16T20:01:33.510Z,6.09
2023-03-16T20:04:04.255Z,6.14
2023-03-16T20:06:34.092Z,6.11
2023-03-16T20:09:02.238Z,6.05
2023-03-16T20:11:32.476Z,6.11
2023-03-16T20:14:02.084Z,6.26
2023-03-16T20:16:33.247Z,6.21
2023-03-16T20:19:03.199Z,6.14
2023-03-16T20:21:31.308Z,6.16
2023-03-16T20:24:01.358Z,6.24
2023-03-16T20:26:33.235Z,6.18
2023-03-16T20:29:02.212Z,6.18
2023-03-16T20:31:34.504Z,6.21
2023-03-16T20:34:03.681Z,6.20
2023-03-16T20:36:32.567Z,6.21
2023-03-16T20:39:03.486Z,6.23
2023-03-16T20:41:33.394Z,6.19
2023-03-16T20:44:03.333Z,6.24
2023-03-16T20:46:33.766Z,6.13
2023-03-16T20:49:02.164Z,6.04
2023-03-16T20:51:30.523Z,6.13
2023-03-16T20:53:58.832Z,6.21
2023-03-16T20:56:28.657Z,6.18
2023-03-16T20:58:59.747Z,6.15
2023-03-16T21:01:27.970Z,6.10
2023-03-16T21:03:57.554Z,6.18
2023-03-16T21:06:28.509Z,6.13
2023-03-16T21:08:58.520Z,6.14
2023-03-16T21:11:33.244Z,6.22
2023-03-16T21:14:01.295Z,6.13
2023-03-16T21:16:30.291Z,6.14
2023-03-16T21:18:58.636Z,6.19
2023-03-16T21:21:26.723Z,6.07
2023-03-16T21:23:55.174Z,6.11
2023-03-16T21:26:26.343Z,6.13
2023-03-16T21:29:00.436Z,6.06
2023-03-16T21:31:29.227Z,6.01
2023-03-16T21:34:00.896Z,5.92
2023-03-16T21:36:29.147Z,6.01
2023-03-16T21:38:57.417Z,5.97
2023-03-16T21:41:25.934Z,5.94
2023-03-16T21:43:56.078Z,5.84
2023-03-16T21:46:25.540Z,5.74
2023-03-16T21:48:55.972Z,5.64
2023-03-16T21:51:30.332Z,5.48
2023-03-16T21:53:59.230Z,5.55
2023-03-16T21:56:27.565Z,5.56
2023-03-16T21:58:57.273Z,5.48
2023-03-16T22:01:28.350Z,5.42
2023-03-16T22:03:58.448Z,5.39
2023-03-16T22:06:28.120Z,5.45
2023-03-16T22:08:56.572Z,5.48
2023-03-16T22:11:28.201Z,5.43
2023-03-16T22:13:59.302Z,5.49
2023-03-16T22:16:29.781Z,5.42
2023-03-16T22:18:59.009Z,5.54
2023-03-16T22:21:33.697Z,5.64
2023-03-16T22:24:05.509Z,5.66
2023-03-16T22:26:33.782Z,5.61
2023-03-16T22:29:03.542Z,5.60
2023-03-16T22:31:35.145Z,5.56
2023-03-16T22:34:04.664Z,5.58
2023-03-16T22:36:34.629Z,5.62
2023-03-16T22:39:05.728Z,5.60
2023-03-16T22:41:34.099Z,5.67
2023-03-16T22:44:05.206Z,5.69
2023-03-16T22:46:33.134Z,5.65
2023-03-16T22:49:01.055Z,5.65
2023-03-16T22:51:33.049Z,5.60
2023-03-16T22:54:04.039Z,5.50
2023-03-16T22:56:32.956Z,5.46
2023-03-16T22:59:05.946Z,5.42
2023-03-16T23:01:37.831Z,5.41
2023-03-16T23:04:15.140Z,5.38
2023-03-16T23:06:43.432Z,5.41
2023-03-16T23:09:15.306Z,5.34
2023-03-16T23:11:45.943Z,5.31
2023-03-16T23:14:16.915Z,5.26
2023-03-16T23:16:46.177Z,5.18
2023-03-16T23:19:25.108Z,5.21
2023-03-16T23:21:55.715Z,5.25
2023-03-16T23:24:24.926Z,5.24
2023-03-16T23:26:54.423Z,5.20
2023-03-16T23:29:26.288Z,5.12
2023-03-16T23:31:54.737Z,5.17
2023-03-16T23:34:25.204Z,5.03
2023-03-16T23:36:53.542Z,5.00
2023-03-16T23:39:21.450Z,4.87
2023-03-16T23:41:50.772Z,4.78
2023-03-16T23:44:21.916Z,4.89
2023-03-16T23:46:51.489Z,4.83
2023-03-16T23:49:22.594Z,4.80
2023-03-16T23:51:51.512Z,4.96
2023-03-16T23:54:22.038Z,4.83
2023-03-16T23:56:50.573Z,4.92
2023-03-16T23:59:22.030Z,4.78
